Details From LFMY - Salon AB
To LFTW - Garons Navy
Flight Number -
Tags generated
Created
Modified
Stats Distance 36 nm / 66 km
Max Altitude 3,400 ft / 1,036 m
Waypoints 3
Social Downloads 3
Likes 0
Share VATSIM

Download

Looking for another format? Having issues loading an existing format? Contact us
Advertisement - Login to hide

Notes

Basic altitude profile: - Ascent Rate: 2500ft/min - Ascent Speed: 250kts - Cruise Altitude: 35000ft - Cruise Speed: 420kts - Descent Rate: 1500ft/min - Descent Speed: 250kts Options: - Use NATs: yes - Use PACOTS: yes - Use low airways: yes - Use high airways: yes

Route

LFMY ITR LFTW

ID Type Via Altitude Latitude Longitude Leg Dist Tot Dist Heading (true) Name
O LFMY APT - 0 ft / 0 m 43.60892˚ 5.11352˚ - 0 nm - Salon AB
ITR DME - 3,400 ft / 1,036 m 43.52608˚ 4.92692˚ 9 nm 9 nm 239° / 238° ISTRES TACAN DME
O LFTW APT - 0 ft / 0 m 43.75744˚ 4.41639˚ 26 nm 35 nm 302° / 302° Garons Navy

Altitude Profile

Advertisement - Login to hide

LFMY

Details ICAO LFMY
Name Salon AB
Region France
Timezone Europe/Paris (UTC+1.0)
Stats Elevation 197 ft / 60 m (AMSL)
Location 43.608925° 5.113519°
Runways 3
Magnetic Variation 1.528° E

METAR

LFMY 171800Z AUTO 32013KT 290V350 CAVOK 05/M01 Q1025

Decode

TAF

Not found

Departure Runways

ID Width Length Bearing (true) Bearing (mag) Surface Threshold Offset Overrun Length
09 131 ft / 40 m 2,573 ft / 784 m 90.96° 89.43° Grass 0 ft / 0 m 0 ft / 0 m
16 148 ft / 45 m 6,570 ft / 2,003 m 159.78° 158.25° Asphalt 0 ft / 0 m 545 ft / 166 m
17 295 ft / 90 m 3,167 ft / 965 m 164.43° 162.90° Grass 0 ft / 0 m 0 ft / 0 m
27 131 ft / 40 m 2,573 ft / 784 m 270.96° 269.43° Grass 0 ft / 0 m 0 ft / 0 m
34 148 ft / 45 m 6,570 ft / 2,003 m 339.78° 338.25° Asphalt 0 ft / 0 m 650 ft / 198 m
35R 295 ft / 90 m 3,167 ft / 965 m 344.44° 342.91° Grass 0 ft / 0 m 0 ft / 0 m

LFTW

Details ICAO LFTW (FNI)
Name Garons Navy
Region France
Timezone Europe/Paris (UTC+1.0)
Stats Elevation 308 ft / 94 m (AMSL)
Location 43.757444° 4.416388°
Runways 1
Magnetic Variation 1.357° E

METAR

LFTW 171800Z AUTO 01006KT CAVOK 03/M00 Q1027 NOSIG

Decode

TAF

TAF AMD LFTW 171400Z 1715/1815 36010KT CAVOK BECMG 1803/1805 29004KT

Decode

Destination Runways

ID Width Length Bearing (true) Bearing (mag) Surface Threshold Offset Overrun Length
18 148 ft / 45 m 8,657 ft / 2,639 m 177.10° 175.74° Concrete 331 ft / 101 m 0 ft / 0 m
36 148 ft / 45 m 8,657 ft / 2,639 m 357.10° 355.74° Concrete 331 ft / 101 m 0 ft / 0 m

Approach Navaids

Runway Type Ident Frequency Range Bearing (true) Bearing (mag) Slope Elevation
18 Localiser NG 109.55 MHz 18 nm / 33 km 177.13° 175.77° - 306 ft / 93 m (AMSL)
18 Glidescope NG 109.55 MHz 10 nm / 19 km 177.10° 175.74° 3.00° 302 ft / 92 m (AMSL)
18 DME NG 109.55 MHz 18 nm / 33 km - - - 340 ft / 104 m (AMSL)
36 Localiser NG 109.09 MHz 18 nm / 33 km 356.75° 355.39° - 308 ft / 94 m (AMSL)
36 Glidescope NG 109.09 MHz 10 nm / 19 km 357.10° 355.74° 3.00° 308 ft / 94 m (AMSL)